Racecast

Micah Scheffer

Temperance Bedford (MI) · 12 · SECMI D1MONROE · Compare head to head

Athlete rating 116.7 2019 XC season
Best race 134.2 XC
Races 103
Seasons 7 2015 — 2022

RankedNation #28076·MI #1073·MI D1 #733·SEC #85·Team #28 ?

Rating scale ?
Speed rating — all races

Cross Country

XC speed rating

2019 XC 115.1

Temperance Bedford (MI) · Grade 10

Date Meet Event Result Place Rating Difficulty PR/SR Flags
2019-10-26 Lake Erie Metro Park OFFICIAL 5000m 17:14.4 27th · 2nd on team 121.0 +0.007 ★PR ★CR SR CSR RSR
2019-10-17 Hudson Mills Metropark - OFFICIAL 5000m 17:41.8 30th · 5th on team 116.5 -0.006 ★CR CSR
2019-10-12 Munson Park 5000m 18:20 5th · 3rd on team 113.9 +0.007 CSR
2019-10-05 Portage West MS 5000m 17:36.1 175th · 5th on team 116.9 -0.003 PR ★CR SR CSR RSR
2019-09-28 Lake Erie Metro Park OFFICIAL 5000m 18:12 25th · 4th on team 113.9 +0.007 CSR
2019-09-24 Indian Creek OFFICIAL 5000m 18:22 39th · 6th on team 114.2 +0.004 ★CR CSR
2019-09-10 Hudson Mills Metropark - OFFICIAL 5000m 18:44 61st · 4th on team 109.4 -0.006 CSR
2019-09-07 Hedges Boyer Park 5000m 17:59 151st · 3rd on team 115.0 -0.003 ★CR SR CSR RSR

2018 XC 114.7

Temperance Bedford (MI) · Grade 9

Date Meet Event Result Place Rating Difficulty PR/SR Flags
2018-11-03 Michigan International Speedway (MIS) 5000m 18:04.8 223rd · 5th on team 114.8 -0.006 ★CR CSR
2018-10-27 Lake Erie Metro Park OFFICIAL 5000m 17:47.2 36th · 5th on team 117.4 +0.007
2018-10-18 Hudson Mills Metropark - OFFICIAL 5000m 17:48.7 36th · 5th on team 115.3 -0.006 CR CSR
2018-10-13 Munson Park 5000m 17:37.3 2nd · 1st on team 117.8 +0.007 PR ★CR SR CSR RSR
2018-10-09 Indian Creek OFFICIAL 5000m 18:26 10th · 5th on team 114.8 +0.004 CR CSR
2018-10-06 Portage West MS 5000m 18:21.1 177th · 6th on team 112.9 -0.003 CR CSR
2018-09-29 Lake Erie Metro Park OFFICIAL 5000m 17:46.7 5th · 1st on team 117.4 +0.007 PR CR SR CSR RSR
2018-09-25 Cass Benton Park OFFICIAL 5000m 19:37.4 27th · 2nd on team 108.9 +0.034 ★CR CSR
2018-09-08 Hedges Boyer Park 5000m 18:09.6 164th · 3rd on team 114.6 -0.003 PR CR SR CSR
2018-09-06 Willow Metropark OFFICIAL 5000m 18:15.1 69th · 5th on team 112.5 -0.003 PR ★CR SR CSR
2018-08-31 Oakland University 4000m 14:22.8 56th · 5th on team 114.9 +0.013 ★PR ★CR SR CSR RSR

2017 XC 128.5

Temperance Bedford (MI) · Grade 8

Date Meet Event Result Place Rating Difficulty PR/SR Flags
2017-10-21 Hudson Mills Metropark - OFFICIAL 3000m 11:37 5th · 1st on team 123.1 -0.022 ★CR SR CSR
2017-10-11 Huron Meadows Metropark OFFICIAL 3200m 11:17.3 1st · 1st on team 134.2 +0.001 ★PR ★CR ★R SR CSR RSR
2017-09-30 Lake Erie Metro Park OFFICIAL 3218m 11:35.6 2nd · 2nd on team 128.8 -0.000 ★PR ★CR SR CSR
2017-09-28 Hudson Mills Metropark - OFFICIAL 3218m 11:48.3 4th · 3rd on team 128.1 +0.020 SR CSR
2017-09-13 Indian Creek OFFICIAL 3200m 11:42.2 1st · 1st on team 127.3 -0.001 ★CR CSR
2017-09-09 Hedges Boyer Park 3200m 11:38.9 7th · 1st on team 130.9 +0.015 PR ★CR R SR CSR RSR
2017-08-31 Eastwood HS 3200m 11:56.6 4th · 1st on team 126.8 +0.017 ★CR SR CSR RSR

2016 XC 125.3

Temperance Bedford (MI) · Grade 7

Date Meet Event Result Place Rating Difficulty PR/SR Flags
2016-10-15 Munson Park 3200m 11:50.9 2nd · 2nd on team 127.0 +0.000 PR ★CR SR CSR
2016-10-12 Heritage Park (Adrian) OFFICIAL 3218m 11:48 4th · 2nd on team 129.2 +0.014 ★CR CSR
2016-10-08 Monroe County Comm College 3218m 11:44.7 3rd · 2nd on team 126.6 -0.011 PR ★CR SR CSR
2016-10-01 Pearson's Metro Park 3000m 11:57.4 4th · 2nd on team 118.9 ★CR CSR
2016-09-28 Hudson Mills Metropark - OFFICIAL 3218m 11:45.7 4th · 2nd on team 130.5 +0.020 PR ★CR R SR CSR RSR
2016-09-24 Maumee Bay State Park 3218m 12:14 16th · 2nd on team 126.7 +0.037 PR ★CR R SR CSR RSR
2016-09-14 Rolling Hills 3000m 11:33.2 6th · 3rd on team 126.6 +0.052 ★PR ★CR R SR CSR RSR
2016-09-10 Hedges Boyer Park 3200m 12:52.1 6th · 3rd on team 119.1 +0.015 CR CSR
2016-09-01 Eastwood HS 3200m 12:26.8 19th · 3rd on team 123.0 +0.017 PR CR SR CSR RSR

2015 XC 119.4

Temperance Bedford (MI) · Grade 6

Date Meet Event Result Place Rating Difficulty PR/SR Flags
2015-10-24 Hudson Mills Metropark - OFFICIAL 2000m 7:01 4th · 1st on team 123.6 -0.062 ★PR ★CR R SR CSR RSR
2015-10-17 Munson Park 2000m 7:26.7 1st · 1st on team 118.5 -0.038 PR ★CR R SR CSR RSR
2015-10-14 Munson Park 2000m 7:27.7 1st · 1st on team 117.2 -0.038 PR CR SR CSR
2015-09-26 Sterling State Park 1850m -0.016 ★PR ★CR SR CSR
2015-09-16 Mill Pond Park 2414m 10:00.6 1st · 1st on team 118.4 +0.067 ★PR ★CR R SR CSR RSR

Track & Field

TF speed rating

2022 TF

Temperance Bedford (MI) · Grade 12

Date Meet Event Result Place Rating Difficulty PR/SR Flags
2022-06-04 2022 MHSAA LP D1 State T&F Championships lj 21-10.75 -0.033
2022-05-31 Larry Steeb Meet of Champions lj 22'02.00 -0.027
2022-05-20 MHSAA LP Region 04-1 @ Saline lj 22' 10.5 -0.033
2022-05-13 SEC-HS: Red Division Championship lj 20-10.00 -0.021
2022-05-13 SEC-HS: Red Division Championship 400m 51.63 2nd · 1st on team -0.021 SR
2022-05-09 Eagle Invite (Clay) 400m 52.72 2nd · 1st on team -0.033 SR
2022-04-29 St. Francis Knight Relays lj 20-08.00 -0.033
2022-04-29 St. Francis Knight Relays 100m 11.98 8th · 1st on team -0.033
2022-04-26 SEC-HS: Bedford & Monroe at Dexter lj 20-10.50 -0.027
2022-04-26 SEC-HS: Bedford & Monroe at Dexter 200m 24.08 1st · 1st on team -0.027
2022-04-26 SEC-HS: Bedford & Monroe at Dexter 100m 11.65 1st · 1st on team -0.027
2022-04-23 Warrior Classic lj 21' 7 -0.017
2022-04-23 Warrior Classic 200m 23.22 3rd · 1st on team -0.017 ★PR SR
2022-04-21 SEC-HS: Saline & Bedford at Huron lj 20'09.00 -0.024
2022-04-21 SEC-HS: Saline & Bedford at Huron 100m 11.49 3rd · 1st on team -0.024 ★PR SR
2022-04-21 SEC-HS: Saline & Bedford at Huron 200m 23.85 2nd · 1st on team -0.024 PR SR
2022-03-24 '22 SEC Conference Invite lj 19-05.50 -0.029

2021 TF

Temperance Bedford (MI) · Grade 11

Date Meet Event Result Place Rating Difficulty PR/SR Flags
2021-06-05 2021 MHSAA LP D1 State T&F Championships lj 18-01.00 -0.029
2021-06-05 2021 MHSAA LP D1 State T&F Championships 400m 51.57 19th · 1st on team -0.029
2021-05-21 MHSAA LP Region 04-1 @ Saline lj 20-11.75 -0.033
2021-05-21 MHSAA LP Region 04-1 @ Saline 400m 51.33 2nd · 1st on team -0.033 ★PR SR
2021-05-14 SEC-HS: Championship (Red) lj 19-09.00 -0.026
2021-05-14 SEC-HS: Championship (Red) 400m 51.54 3rd · 1st on team -0.026 PR SR
2021-05-11 SEC-HS: Bedford & Ypsi vs Skyline (@Lincoln) lj 17'06.00 -0.021
2021-05-11 SEC-HS: Bedford & Ypsi vs Skyline (@Lincoln) 200m 23.91 1st · 1st on team -0.021 PR SR
2021-05-07 Clay Eagle Invite lj 19-08.50 -0.033
2021-05-07 Clay Eagle Invite 400m 51.75 3rd · 1st on team -0.033 PR SR
2021-05-04 SEC-HS: Bedford at Monroe lj NM -0.022
2021-05-04 SEC-HS: Bedford at Monroe 400m 52.48 1st · 1st on team -0.022 PR SR
2021-05-04 SEC-HS: Bedford at Monroe 200m 23.96 1st · 1st on team -0.022 PR SR
2021-05-04 SEC-HS: Bedford at Monroe 100m 11.61 1st · 1st on team -0.022 PR SR
2021-04-27 SEC-HS: Bedford at AA Pioneer lj 17'08.50 -0.017
2021-04-24 Warrior Classic lj 16'10.50 -0.017
2021-04-24 Warrior Classic 400m 53.99 4th · 1st on team -0.017 SR
2021-04-15 Springfield (Holland) Invitational lj 19-09.00 -0.020
2021-04-15 Springfield (Holland) Invitational 400m 54.61 1st · 1st on team -0.020 SR
2021-03-30 Bedford at Whitmer 200m 25.14 1st · 1st on team -0.034 SR

2019 TF 111.8

Temperance Bedford (MI) · Grade 9

Date Meet Event Result Place Rating Difficulty PR/SR Flags
2019-05-23 Freshman Beck Invitational lj 18'1" -0.013
2019-05-23 Freshman Beck Invitational 400m 54.84 1st · 1st on team -0.013
2019-05-23 Freshman Beck Invitational 200m 24.94 1st · 1st on team -0.013
2019-05-17 MHSAA LP Region 04-1 @ Saline 400m 52.91 8th · 2nd on team -0.033 PR SR
2019-05-10 SEC Red Divisional Championship Meet lj 17' 5.75 -0.022
2019-05-10 SEC Red Divisional Championship Meet 200m 24.5 13th · 3rd on team -0.022 PR SR
2019-05-10 SEC Red Divisional Championship Meet 400m 53.62 6th · 2nd on team -0.022 PR SR
2019-04-30 SEC-R: Monroe & Bedford @ Skyline 1600m 5:00.03 14th · 3rd on team 115.6 -0.021 ★PR SR RSR
2019-04-26 Knight Relays lj 18-07.75 -0.033
2019-04-25 Knight Classic Freshman Invitational lj 18-08.50 -0.033
2019-04-25 Knight Classic Freshman Invitational 400m 55.54 1st · 1st on team -0.033 PR SR
2019-04-23 SEC Red Division - Bedford vs Saline lj 19-02.00 -0.026
2019-04-23 SEC Red Division - Bedford vs Saline 200m 24.65 9th · 2nd on team -0.026 PR SR
2019-04-11 Titan Freshman Invitational lj 18'4.5" -0.035
2019-04-11 Titan Freshman Invitational 800m 2:16.38 1st · 1st on team 112.4 -0.035 ★PR SR
2019-04-09 SEC-R: Bedford @ Pioneer lj 18'02.50 -0.017
2019-04-09 SEC-R: Bedford @ Pioneer 100m 12.6 5th · 1st on team -0.017 PR SR
2019-04-09 SEC-R: Bedford @ Pioneer 200m 24.96 5th · 3rd on team -0.017 PR SR
2019-04-09 SEC-R: Bedford @ Pioneer 1600m 5:20.98 12th · 5th on team 108.8 -0.017
2019-03-23 Bedford @ Ida Scrimmage lj 16-08.50 -0.014
2019-03-23 Bedford @ Ida Scrimmage 1600m 5:20.02 8th · 6th on team 109.2 -0.014 PR SR RSR
2019-03-23 Bedford @ Ida Scrimmage 800m 2:17.67 2nd · 2nd on team 113.0 -0.014 PR SR RSR

2018 TF

Temperance Bedford (MI) · Grade 8

Date Meet Event Result Place Rating Difficulty PR/SR Flags
2018-05-16 Hornet MS Relays lj 18-09.25 -0.030

2017 TF 123.2

Temperance Bedford (MI) · Grade 7

Date Meet Event Result Place Rating Difficulty PR/SR Flags
2017-05-17 Saline MS Hornet Relays lj 16-07.00 -0.033
2017-05-15 SEC MS: Mill Creek (Dexter) vs. Bedford lj 15-08.50 -0.027
2017-05-15 SEC MS: Mill Creek (Dexter) vs. Bedford 800m 2:28.59 1st · 1st on team 123.2 -0.027 PR SR RSR